createdAt,value
2022-10-24T00:02:14.181Z,15.80
2022-10-24T00:06:17.261Z,15.80
2022-10-24T00:10:21.614Z,15.70
2022-10-24T00:14:24.476Z,15.70
2022-10-24T00:18:27.308Z,15.70
2022-10-24T00:22:30.168Z,15.70
2022-10-24T00:26:35.163Z,15.70
2022-10-24T00:30:37.970Z,15.60
2022-10-24T00:34:41.064Z,15.60
2022-10-24T00:38:43.950Z,15.60
2022-10-24T00:42:48.335Z,15.50
2022-10-24T00:46:53.159Z,15.50
2022-10-24T00:50:57.898Z,15.40
2022-10-24T00:55:02.416Z,15.40
2022-10-24T00:59:08.378Z,15.40
2022-10-24T01:03:11.719Z,15.30
2022-10-24T01:07:23.173Z,15.30
2022-10-24T01:11:34.748Z,15.30
2022-10-24T01:15:43.556Z,15.20
2022-10-24T01:20:01.802Z,15.20
2022-10-24T01:24:11.094Z,15.20
2022-10-24T01:28:15.763Z,15.20
2022-10-24T01:32:24.007Z,15.20
2022-10-24T01:36:32.592Z,15.20
2022-10-24T01:40:36.639Z,15.20
2022-10-24T01:44:41.299Z,15.20
2022-10-24T01:48:46.946Z,15.20
2022-10-24T01:52:50.980Z,15.30
2022-10-24T01:56:53.821Z,15.30
2022-10-24T02:00:59.919Z,15.30
2022-10-24T02:05:06.711Z,15.40
2022-10-24T02:09:11.907Z,15.40
2022-10-24T02:13:17.845Z,15.40
2022-10-24T02:17:20.764Z,15.40
2022-10-24T02:21:30.159Z,15.40
2022-10-24T02:25:35.291Z,15.40
2022-10-24T02:29:42.740Z,15.50
2022-10-24T02:33:46.909Z,15.40
2022-10-24T02:37:52.711Z,15.40
2022-10-24T02:41:56.713Z,15.40
2022-10-24T02:46:00.087Z,15.40
2022-10-24T02:50:02.975Z,15.40
2022-10-24T02:54:07.308Z,15.30
2022-10-24T02:58:10.165Z,15.40
2022-10-24T03:02:13.011Z,15.30
2022-10-24T03:06:15.831Z,15.30
2022-10-24T03:10:20.098Z,15.30
2022-10-24T03:14:22.953Z,15.30
2022-10-24T03:18:25.833Z,15.30
2022-10-24T03:22:30.592Z,15.30
2022-10-24T03:26:35.233Z,15.30
2022-10-24T03:30:38.079Z,15.30
2022-10-24T03:34:40.904Z,15.30
2022-10-24T03:38:43.813Z,15.30
2022-10-24T03:42:48.270Z,15.30
2022-10-24T03:46:51.271Z,15.20
2022-10-24T03:50:54.122Z,15.30
2022-10-24T03:54:56.966Z,15.30
2022-10-24T03:59:01.188Z,15.20
2022-10-24T04:03:04.027Z,15.20
2022-10-24T04:07:07.027Z,15.20
2022-10-24T04:11:09.897Z,15.20
2022-10-24T04:15:14.155Z,15.20
2022-10-24T04:19:18.438Z,15.20
2022-10-24T04:23:21.303Z,15.20
2022-10-24T04:27:24.138Z,15.20
2022-10-24T04:31:28.363Z,15.20
2022-10-24T04:35:31.243Z,15.20
2022-10-24T04:39:34.109Z,15.20
2022-10-24T04:43:36.962Z,15.20
2022-10-24T04:47:41.332Z,15.20
2022-10-24T04:51:44.305Z,15.20
2022-10-24T04:55:47.172Z,15.20
2022-10-24T04:59:50.033Z,15.30
2022-10-24T05:03:54.413Z,15.30
2022-10-24T05:07:57.310Z,15.30
2022-10-24T05:12:00.172Z,15.30
2022-10-24T05:16:03.059Z,15.30
2022-10-24T05:20:08.333Z,15.30
2022-10-24T05:24:11.257Z,15.30
2022-10-24T05:28:14.076Z,15.30
2022-10-24T05:32:16.910Z,15.40
2022-10-24T05:36:21.082Z,15.30
2022-10-24T05:40:23.956Z,15.30
2022-10-24T05:44:27.211Z,15.30
2022-10-24T05:48:30.129Z,15.30
2022-10-24T05:52:36.404Z,15.30
2022-10-24T05:56:39.288Z,15.30
2022-10-24T06:00:42.127Z,15.40
2022-10-24T06:04:44.971Z,15.40
2022-10-24T06:08:49.174Z,15.40
2022-10-24T06:12:52.054Z,15.40
2022-10-24T06:16:54.879Z,15.50
2022-10-24T06:21:00.159Z,15.50
2022-10-24T06:25:05.910Z,15.50
2022-10-24T06:29:08.756Z,15.50
2022-10-24T06:33:12.040Z,15.50
2022-10-24T06:37:14.928Z,15.50
2022-10-24T06:41:19.099Z,15.50
2022-10-24T06:45:22.852Z,15.50
2022-10-24T06:49:25.715Z,15.60
2022-10-24T06:53:28.584Z,15.60
2022-10-24T06:57:32.789Z,15.60
2022-10-24T07:01:35.847Z,15.70
2022-10-24T07:05:38.768Z,15.70
2022-10-24T07:09:41.588Z,15.80
2022-10-24T07:13:45.816Z,15.80
2022-10-24T07:17:48.655Z,15.90
2022-10-24T07:21:51.534Z,16.00
2022-10-24T07:25:54.398Z,16.10
2022-10-24T07:30:01.617Z,16.10
2022-10-24T07:34:09.309Z,16.10
2022-10-24T07:38:15.291Z,16.20
2022-10-24T07:42:20.782Z,16.30
2022-10-24T07:46:25.250Z,16.30
2022-10-24T07:50:28.297Z,16.40
2022-10-24T07:54:33.170Z,16.50
2022-10-24T07:58:39.157Z,16.60
2022-10-24T08:02:43.616Z,16.70
2022-10-24T08:06:46.532Z,16.80
2022-10-24T08:10:49.486Z,17.00
2022-10-24T08:14:53.416Z,17.10
2022-10-24T08:18:58.557Z,17.20
2022-10-24T08:23:01.452Z,17.40
2022-10-24T08:27:04.352Z,17.60
2022-10-24T08:31:08.118Z,17.90
2022-10-24T08:35:16.739Z,18.00
2022-10-24T08:39:19.927Z,18.00
2022-10-24T08:43:23.314Z,18.00
2022-10-24T08:47:30.216Z,18.10
2022-10-24T08:51:37.785Z,18.60
2022-10-24T08:55:49.217Z,18.60
2022-10-24T08:59:54.470Z,19.40
2022-10-24T09:04:00.351Z,20.30
2022-10-24T09:08:07.920Z,20.30
2022-10-24T09:12:13.462Z,20.60
2022-10-24T09:16:18.132Z,20.90
2022-10-24T09:20:22.314Z,21.20
2022-10-24T09:24:29.914Z,21.70
2022-10-24T09:28:34.295Z,21.70
2022-10-24T09:32:37.301Z,22.20
2022-10-24T09:36:40.800Z,22.70
2022-10-24T09:40:50.509Z,23.10
2022-10-24T09:44:53.392Z,23.60
2022-10-24T09:48:57.006Z,24.00
2022-10-24T09:53:00.467Z,24.40
2022-10-24T09:57:13.483Z,24.40
2022-10-24T10:01:20.416Z,24.30
2022-10-24T10:05:23.469Z,23.80
2022-10-24T10:09:31.449Z,23.20
2022-10-24T10:13:40.942Z,22.70
2022-10-24T10:17:50.347Z,22.20
2022-10-24T10:21:55.020Z,21.70
2022-10-24T10:26:09.003Z,21.30
2022-10-24T10:30:20.914Z,21.00
2022-10-24T10:34:24.884Z,20.60
2022-10-24T10:38:37.370Z,20.40
2022-10-24T10:42:44.390Z,20.10
2022-10-24T10:46:54.482Z,20.00
2022-10-24T10:51:02.279Z,19.80
2022-10-24T10:55:16.081Z,19.70
2022-10-24T10:59:34.523Z,19.80
2022-10-24T11:03:42.568Z,20.00
2022-10-24T11:07:48.907Z,20.30
2022-10-24T11:11:55.029Z,20.50
2022-10-24T11:16:00.060Z,20.70
2022-10-24T11:20:08.696Z,20.80
2022-10-24T11:24:13.838Z,20.80
2022-10-24T11:28:19.504Z,20.60
2022-10-24T11:32:25.154Z,20.60
2022-10-24T11:36:33.681Z,20.70
2022-10-24T11:40:36.559Z,21.00
2022-10-24T11:44:47.294Z,21.40
2022-10-24T11:48:54.351Z,21.90
2022-10-24T11:53:01.055Z,22.10
2022-10-24T11:57:05.327Z,22.10
2022-10-24T12:01:20.163Z,22.10
2022-10-24T12:10:11.478Z,22.70
2022-10-24T12:14:22.548Z,23.20
2022-10-24T12:18:29.058Z,23.80
2022-10-24T12:22:35.672Z,24.30
2022-10-24T12:26:38.524Z,24.40
2022-10-24T12:30:42.940Z,24.30
2022-10-24T12:35:12.207Z,24.00
2022-10-24T12:39:29.606Z,23.50
2022-10-24T12:43:33.700Z,23.10
2022-10-24T12:47:40.242Z,22.80
2022-10-24T12:51:43.119Z,22.50
2022-10-24T12:56:04.673Z,22.30
2022-10-24T13:00:22.639Z,22.10
2022-10-24T13:04:49.173Z,21.90
2022-10-24T13:08:58.644Z,21.70
2022-10-24T13:13:16.139Z,21.50
2022-10-24T13:17:23.016Z,21.20
2022-10-24T13:21:29.030Z,21.10
2022-10-24T13:25:34.693Z,20.90
2022-10-24T13:30:07.776Z,20.70
2022-10-24T13:34:15.622Z,20.60
2022-10-24T13:38:22.837Z,20.60
2022-10-24T13:42:32.978Z,20.50
2022-10-24T13:46:41.888Z,20.40
2022-10-24T13:50:49.560Z,20.40
2022-10-24T13:54:58.537Z,20.30
2022-10-24T13:59:01.929Z,20.20
2022-10-24T14:03:05.768Z,20.10
2022-10-24T14:07:09.982Z,20.10
2022-10-24T14:11:19.743Z,20.10
2022-10-24T14:15:26.607Z,20.00
2022-10-24T14:19:32.498Z,19.90
2022-10-24T14:23:37.142Z,19.90
2022-10-24T14:27:42.865Z,19.80
2022-10-24T14:31:46.094Z,19.70
2022-10-24T14:35:51.225Z,19.60
2022-10-24T14:39:56.833Z,19.60
2022-10-24T14:44:01.308Z,19.60
2022-10-24T14:48:16.449Z,19.70
2022-10-24T14:52:23.100Z,19.70
2022-10-24T14:56:27.373Z,19.60
2022-10-24T15:00:37.980Z,19.60
2022-10-24T15:04:42.064Z,19.60
2022-10-24T15:08:48.391Z,19.60
2022-10-24T15:12:53.671Z,19.60
2022-10-24T15:21:05.303Z,19.70
2022-10-24T15:25:10.242Z,19.80
2022-10-24T15:29:19.559Z,19.90
2022-10-24T15:33:23.782Z,20.00
2022-10-24T15:37:28.639Z,20.10
2022-10-24T15:41:31.676Z,20.00
2022-10-24T15:45:34.572Z,19.80
2022-10-24T15:49:38.825Z,19.50
2022-10-24T15:53:41.904Z,19.30
2022-10-24T15:57:44.746Z,19.20
2022-10-24T16:01:50.509Z,19.00
2022-10-24T16:05:56.756Z,18.90
2022-10-24T16:09:59.627Z,18.70
2022-10-24T16:14:02.520Z,18.60
2022-10-24T16:18:05.665Z,18.50
2022-10-24T16:22:10.970Z,18.40
2022-10-24T16:26:14.192Z,18.30
2022-10-24T16:30:17.794Z,18.20
2022-10-24T16:34:20.634Z,18.20
2022-10-24T16:38:24.996Z,18.10
2022-10-24T16:42:28.487Z,18.00
2022-10-24T16:46:31.419Z,18.00
2022-10-24T16:50:34.343Z,17.90
2022-10-24T16:54:38.793Z,17.80
2022-10-24T16:58:41.687Z,17.70
2022-10-24T17:02:45.628Z,17.70
2022-10-24T17:06:48.678Z,17.60
2022-10-24T17:10:54.645Z,17.60
2022-10-24T17:14:57.542Z,17.50
2022-10-24T17:19:14.795Z,17.50
2022-10-24T17:23:20.722Z,17.50
2022-10-24T17:27:25.423Z,17.40
2022-10-24T17:31:28.416Z,17.40
2022-10-24T17:35:31.596Z,17.30
2022-10-24T17:39:43.147Z,17.20
2022-10-24T17:43:50.330Z,17.20
2022-10-24T17:47:53.496Z,17.10
2022-10-24T17:51:56.806Z,17.10
2022-10-24T17:55:59.844Z,17.00
2022-10-24T18:00:05.267Z,17.00
2022-10-24T18:04:08.112Z,16.90
2022-10-24T18:08:11.444Z,16.90
2022-10-24T18:12:14.251Z,16.90
2022-10-24T18:16:19.306Z,16.80
2022-10-24T18:20:22.856Z,16.70
2022-10-24T18:24:25.830Z,16.70
2022-10-24T18:28:28.699Z,16.60
2022-10-24T18:32:33.208Z,16.50
2022-10-24T18:36:37.083Z,16.50
2022-10-24T18:40:40.210Z,16.50
2022-10-24T18:44:50.197Z,16.50
2022-10-24T18:48:55.562Z,16.40
2022-10-24T18:53:02.564Z,16.30
2022-10-24T18:57:11.956Z,16.30
2022-10-24T19:01:20.589Z,16.20
2022-10-24T19:05:28.509Z,16.20
2022-10-24T19:09:31.602Z,16.10
2022-10-24T19:13:34.664Z,16.10
2022-10-24T19:17:37.603Z,16.00
2022-10-24T19:21:47.658Z,16.00
2022-10-24T19:25:52.768Z,16.00
2022-10-24T19:29:55.687Z,16.00
2022-10-24T19:33:59.355Z,16.00
2022-10-24T19:38:05.231Z,16.00
2022-10-24T19:42:08.751Z,16.00
2022-10-24T19:46:20.037Z,16.00
2022-10-24T19:50:23.374Z,16.00
2022-10-24T19:54:27.635Z,16.00
2022-10-24T19:58:30.548Z,15.90
2022-10-24T20:02:34.412Z,15.90
2022-10-24T20:06:37.304Z,15.90
2022-10-24T20:10:41.632Z,15.90
2022-10-24T20:14:44.525Z,15.90
2022-10-24T20:18:47.888Z,15.80
2022-10-24T20:22:51.014Z,15.80
2022-10-24T20:26:55.330Z,15.80
2022-10-24T20:30:58.568Z,15.70
2022-10-24T20:35:01.487Z,15.70
2022-10-24T20:39:04.602Z,15.70
2022-10-24T20:43:09.347Z,15.70
2022-10-24T20:47:12.349Z,15.60
2022-10-24T20:51:16.394Z,15.60
2022-10-24T20:55:31.831Z,15.60
2022-10-24T20:59:36.452Z,15.50
2022-10-24T21:03:39.828Z,15.50
2022-10-24T21:07:42.926Z,15.40
2022-10-24T21:11:45.812Z,15.40
2022-10-24T21:15:55.266Z,15.40
2022-10-24T21:19:58.216Z,15.40
2022-10-24T21:24:04.223Z,15.30
2022-10-24T21:28:09.595Z,15.30
2022-10-24T21:32:13.934Z,15.30
2022-10-24T21:36:17.607Z,15.30
2022-10-24T21:40:20.457Z,15.20
2022-10-24T21:44:24.210Z,15.20
2022-10-24T21:48:28.452Z,15.20
2022-10-24T21:52:31.383Z,15.10
2022-10-24T21:56:36.943Z,15.10
2022-10-24T22:00:40.428Z,15.10
2022-10-24T22:04:44.702Z,15.10
2022-10-24T22:08:48.485Z,15.00
2022-10-24T22:12:51.382Z,15.10
2022-10-24T22:16:54.260Z,15.10
2022-10-24T22:20:58.788Z,15.10
2022-10-24T22:25:01.598Z,15.10
2022-10-24T22:29:05.079Z,15.10
2022-10-24T22:33:08.732Z,15.10
2022-10-24T22:37:21.648Z,15.10
2022-10-24T22:41:24.784Z,15.20
2022-10-24T22:45:29.236Z,15.20
2022-10-24T22:49:39.236Z,15.10
2022-10-24T22:53:44.192Z,15.10
2022-10-24T22:57:47.289Z,15.10
2022-10-24T23:01:56.700Z,15.10
2022-10-24T23:06:00.945Z,15.10
2022-10-24T23:10:07.275Z,15.00
2022-10-24T23:14:10.823Z,15.00
2022-10-24T23:18:14.656Z,15.00
2022-10-24T23:22:21.001Z,15.00
2022-10-24T23:26:31.483Z,14.90
2022-10-24T23:30:34.653Z,14.90
2022-10-24T23:34:37.854Z,14.80
2022-10-24T23:38:40.923Z,14.80
2022-10-24T23:42:46.001Z,14.80
2022-10-24T23:46:53.525Z,14.80
2022-10-24T23:51:00.672Z,14.80
2022-10-24T23:55:03.812Z,14.70
2022-10-24T23:59:20.274Z,14.70
